Martha — WDD8520 — position and weather

sailwx.info

Track history (hours):
 
Tides and Currents Weather Stations Pressure Air Temp Water Temp Dewpoint Dewpoint Depression Visibility Wind Speed Wind Dir Waves Ship Positions

Martha

Owner: TRIPLE C TOWING, LLC, HOUMA, LA. More information available from US FCC via Universal Licensing System and Coast Guard Vessel Documentation Center.

Last reported at 2017-Dec-16 16:34 UTC. Time now 2017-Dec-17 10:09 UTC.
Position N 29°36' W 090°40'.

Length 20 m; draft 4 m.

Type: Tug. MMSI: 367299240.

Date/timePositionNaut miles runAvg speedWind from/ knotsBaromVisibWave heightAir tempDewpointWater temp
2017-Dec-16 16:34N 29°36' W 090°40'0 0.0
2017-Dec-16 16:30N 29°36' W 090°40'0 0.0
2017-Dec-16 15:55N 29°36' W 090°40'0 0.0
2017-Dec-16 15:30N 29°36' W 090°40'0 0.0
2017-Dec-16 15:00N 29°36' W 090°40'0 0.0
2017-Dec-16 14:27N 29°36' W 090°40'0 0.0
2017-Dec-16 13:58N 29°36' W 090°40'0 0.0
2017-Dec-16 13:30N 29°36' W 090°40'0 0.0
2017-Dec-16 11:50N 29°36' W 090°40'0 0.0
2017-Dec-16 10:50N 29°36' W 090°40'0 0.0
2017-Dec-16 09:48N 29°36' W 090°40'0 0.0
2017-Dec-16 09:30N 29°36' W 090°40'0 0.0
2017-Dec-16 09:00N 29°36' W 090°40'0 0.0
2017-Dec-16 08:27N 29°36' W 090°40'0 0.0
2017-Dec-16 07:36N 29°36' W 090°40'0 0.0
2017-Dec-16 07:21N 29°36' W 090°40'0 0.0
2017-Dec-16 06:58N 29°36' W 090°40'0 0.0
2017-Dec-16 06:29N 29°36' W 090°40'0 0.0
2017-Dec-16 05:57N 29°36' W 090°40'0 0.0
2017-Dec-16 05:30N 29°36' W 090°40'0 0.0
2017-Dec-16 05:00N 29°36' W 090°40'0 0.0
2017-Dec-16 04:22N 29°36' W 090°40'2 6.7
2017-Dec-16 04:00N 29°35' W 090°38'2 5.0
2017-Dec-16 03:30N 29°34' W 090°35'3 6.1
2017-Dec-16 03:00N 29°34' W 090°31'10 0.3
2017-Dec-14 18:23N 29°37' W 090°42'0 0.5
2017-Dec-14 17:46N 29°36' W 090°43'16 0.5
2017-Dec-13 05:18N 29°33' W 090°24'2 3.8
2017-Dec-13 04:50N 29°33' W 090°26'2 3.8
2017-Dec-13 04:26N 29°33' W 090°28'2 3.8
2017-Dec-13 04:00N 29°34' W 090°30'2 3.8
2017-Dec-13 03:30N 29°34' W 090°32'9 3.7
2017-Dec-13 01:10N 29°36' W 090°41'1 3.3
2017-Dec-13 00:51N 29°37' W 090°42'1 3.9
2017-Dec-13 00:31N 29°35' W 090°43'2 3.6
2017-Dec-13 00:01N 29°33' W 090°43'0 0.6
2017-Dec-12 23:30N 29°33' W 090°42'3 0.2
2017-Dec-12 10:08N 29°30' W 090°43'1 7.8
2017-Dec-12 10:00N 29°31' W 090°42'2 4.8
2017-Dec-12 09:31N 29°34' W 090°43'2 3.9
2017-Dec-12 09:01N 29°36' W 090°43'1 0.1
2017-Dec-11 18:29N 29°37' W 090°42'3 6.3
2017-Dec-11 18:01N 29°34' W 090°44'0 0.0
2017-Dec-11 17:31N 29°34' W 090°44'0 0.0
2017-Dec-11 17:01N 29°34' W 090°44'1 1.0
2017-Dec-11 16:31N 29°34' W 090°43'3 1.9
2017-Dec-11 14:45N 29°36' W 090°40'0 0.0
2017-Dec-11 14:30N 29°36' W 090°40'0 0.0
2017-Dec-11 14:00N 29°36' W 090°40'0 0.0
2017-Dec-11 13:30N 29°36' W 090°40'0 0.0
2017-Dec-11 13:01N 29°36' W 090°40'0 0.0
2017-Dec-11 12:30N 29°36' W 090°40'0 0.0
2017-Dec-11 12:00N 29°36' W 090°40'0 0.0
2017-Dec-11 11:31N 29°36' W 090°40'0 0.0
2017-Dec-11 11:00N 29°36' W 090°40'0 0.0
2017-Dec-11 10:30N 29°36' W 090°40'0 0.0
2017-Dec-11 10:00N 29°36' W 090°40'0 0.0
2017-Dec-11 09:30N 29°36' W 090°40'0 0.0
2017-Dec-11 09:00N 29°36' W 090°40'0 0.0
2017-Dec-11 08:31N 29°36' W 090°40'0 0.0
2017-Dec-11 08:00N 29°36' W 090°40'0 0.0
2017-Dec-11 07:30N 29°36' W 090°40'0 0.0
2017-Dec-11 07:00N 29°36' W 090°40'0 0.0
2017-Dec-11 06:31N 29°36' W 090°40'0 0.0
2017-Dec-11 06:00N 29°36' W 090°40'0 0.0
2017-Dec-11 05:30N 29°36' W 090°40'0 0.0
2017-Dec-11 05:00N 29°36' W 090°40'0 0.0
2017-Dec-11 04:30N 29°36' W 090°40'0 0.0
2017-Dec-11 04:00N 29°36' W 090°40'0 0.0
2017-Dec-11 03:30N 29°36' W 090°40'0 0.0
2017-Dec-11 03:00N 29°36' W 090°40'0 0.0
2017-Dec-11 02:31N 29°36' W 090°40'0 0.0
2017-Dec-11 02:00N 29°36' W 090°40'0 0.0
2017-Dec-11 01:30N 29°36' W 090°40'2 0.3
2017-Dec-10 17:56N 29°37' W 090°42'3 6.7
2017-Dec-10 17:31N 29°34' W 090°43'6 0.3
2017-Dec-09 18:33N 29°28' W 090°43'0 5.1
2017-Dec-09 18:30N 29°28' W 090°43'4 8.4
2017-Dec-09 18:00N 29°32' W 090°42'3 6.5
2017-Dec-09 17:31N 29°35' W 090°43'3 1.2
2017-Dec-09 15:16N 29°36' W 090°40'0 0.0
2017-Dec-09 14:51N 29°36' W 090°40'0 0.0
2017-Dec-09 14:29N 29°36' W 090°40'0 0.0
2017-Dec-09 14:01N 29°36' W 090°40'0 0.0
2017-Dec-09 13:30N 29°36' W 090°40'0 0.0
2017-Dec-09 13:00N 29°36' W 090°40'0 0.0
2017-Dec-09 12:31N 29°36' W 090°40'0 0.0
2017-Dec-09 12:00N 29°36' W 090°40'0 0.0
2017-Dec-09 11:31N 29°36' W 090°40'0 0.0
2017-Dec-09 11:00N 29°36' W 090°40'0 0.0
2017-Dec-09 10:30N 29°36' W 090°40'0 0.0
2017-Dec-09 10:00N 29°36' W 090°40'0 0.0
2017-Dec-09 09:31N 29°36' W 090°40'0 0.0
2017-Dec-09 09:00N 29°36' W 090°40'0 0.0
2017-Dec-09 08:31N 29°36' W 090°40'0 0.0
2017-Dec-09 08:01N 29°36' W 090°40'0 0.0
2017-Dec-09 07:29N 29°36' W 090°40'0 0.0
2017-Dec-09 07:00N 29°36' W 090°40'0 0.0
2017-Dec-09 06:31N 29°36' W 090°40'0 0.0
2017-Dec-09 05:59N 29°36' W 090°40'0 0.0
2017-Dec-09 05:31N 29°36' W 090°40'0 0.0
2017-Dec-09 05:00N 29°36' W 090°40'0 0.0
2017-Dec-09 04:30N 29°36' W 090°40'0 0.0
2017-Dec-09 03:59N 29°36' W 090°40'0 0.0
2017-Dec-09 03:30N 29°36' W 090°40'0 0.0
2017-Dec-09 03:01N 29°36' W 090°40'0 0.0
2017-Dec-09 02:30N 29°36' W 090°40'0 0.0
2017-Dec-09 02:00N 29°36' W 090°40'0 0.0
2017-Dec-09 01:30N 29°36' W 090°40'0 0.0
2017-Dec-09 01:01N 29°36' W 090°40'0 0.0
2017-Dec-09 00:30N 29°36' W 090°40'0 0.0
2017-Dec-09 00:01N 29°36' W 090°40'0 0.0
2017-Dec-08 23:31N 29°36' W 090°40'0 0.0
2017-Dec-08 23:01N 29°36' W 090°40'0 0.0
2017-Dec-08 22:30N 29°36' W 090°40'0 0.0
2017-Dec-08 22:00N 29°36' W 090°40'0 0.0
2017-Dec-08 21:30N 29°36' W 090°40'0 0.0
2017-Dec-08 21:00N 29°36' W 090°40'0 0.0
2017-Dec-08 20:30N 29°36' W 090°40'0 0.0
2017-Dec-08 20:01N 29°36' W 090°40'0 0.0
2017-Dec-08 19:30N 29°36' W 090°40'0 0.0
2017-Dec-08 19:01N 29°36' W 090°40'0 0.0
2017-Dec-08 18:30N 29°36' W 090°40'0 0.0
2017-Dec-08 18:01N 29°36' W 090°40'0 0.0
2017-Dec-08 17:30N 29°36' W 090°40'0 0.0
2017-Dec-08 17:01N 29°36' W 090°40'0 0.0
2017-Dec-08 16:30N 29°36' W 090°40'0 0.0
2017-Dec-08 16:00N 29°36' W 090°40'0 0.0
2017-Dec-08 15:31N 29°36' W 090°40'0 0.0
2017-Dec-08 15:00N 29°36' W 090°40'  
Track history (hours):
 
Tides and Currents Weather Stations Pressure Air Temp Water Temp Dewpoint Dewpoint Depression Visibility Wind Speed Wind Dir Waves Ship Positions

Martha

Owner: TRIPLE C TOWING, LLC, HOUMA, LA. More information available from US FCC via Universal Licensing System and Coast Guard Vessel Documentation Center.

Last reported at 2017-Dec-16 16:34 UTC. Time now 2017-Dec-17 10:09 UTC.
Position N 29°36' W 090°40'.

Length 20 m; draft 4 m.

Type: Tug. MMSI: 367299240.

Date/timePositionNaut miles runAvg speedWind from/ knotsBaromVisibWave heightAir tempDewpointWater temp
2017-Dec-16 16:34N 29°36' W 090°40'0 0.0
2017-Dec-16 16:30N 29°36' W 090°40'0 0.0
2017-Dec-16 15:55N 29°36' W 090°40'0 0.0
2017-Dec-16 15:30N 29°36' W 090°40'0 0.0
2017-Dec-16 15:00N 29°36' W 090°40'0 0.0
2017-Dec-16 14:27N 29°36' W 090°40'0 0.0
2017-Dec-16 13:58N 29°36' W 090°40'0 0.0
2017-Dec-16 13:30N 29°36' W 090°40'0 0.0
2017-Dec-16 11:50N 29°36' W 090°40'0 0.0
2017-Dec-16 10:50N 29°36' W 090°40'0 0.0
2017-Dec-16 09:48N 29°36' W 090°40'0 0.0
2017-Dec-16 09:30N 29°36' W 090°40'0 0.0
2017-Dec-16 09:00N 29°36' W 090°40'0 0.0
2017-Dec-16 08:27N 29°36' W 090°40'0 0.0
2017-Dec-16 07:36N 29°36' W 090°40'0 0.0
2017-Dec-16 07:21N 29°36' W 090°40'0 0.0
2017-Dec-16 06:58N 29°36' W 090°40'0 0.0
2017-Dec-16 06:29N 29°36' W 090°40'0 0.0
2017-Dec-16 05:57N 29°36' W 090°40'0 0.0
2017-Dec-16 05:30N 29°36' W 090°40'0 0.0
2017-Dec-16 05:00N 29°36' W 090°40'0 0.0
2017-Dec-16 04:22N 29°36' W 090°40'2 6.7
2017-Dec-16 04:00N 29°35' W 090°38'2 5.0
2017-Dec-16 03:30N 29°34' W 090°35'3 6.1
2017-Dec-16 03:00N 29°34' W 090°31'10 0.3
2017-Dec-14 18:23N 29°37' W 090°42'0 0.5
2017-Dec-14 17:46N 29°36' W 090°43'16 0.5
2017-Dec-13 05:18N 29°33' W 090°24'2 3.8
2017-Dec-13 04:50N 29°33' W 090°26'2 3.8
2017-Dec-13 04:26N 29°33' W 090°28'2 3.8
2017-Dec-13 04:00N 29°34' W 090°30'2 3.8
2017-Dec-13 03:30N 29°34' W 090°32'9 3.7
2017-Dec-13 01:10N 29°36' W 090°41'1 3.3
2017-Dec-13 00:51N 29°37' W 090°42'1 3.9
2017-Dec-13 00:31N 29°35' W 090°43'2 3.6
2017-Dec-13 00:01N 29°33' W 090°43'0 0.6
2017-Dec-12 23:30N 29°33' W 090°42'3 0.2
2017-Dec-12 10:08N 29°30' W 090°43'1 7.8
2017-Dec-12 10:00N 29°31' W 090°42'2 4.8
2017-Dec-12 09:31N 29°34' W 090°43'2 3.9
2017-Dec-12 09:01N 29°36' W 090°43'1 0.1
2017-Dec-11 18:29N 29°37' W 090°42'3 6.3
2017-Dec-11 18:01N 29°34' W 090°44'0 0.0
2017-Dec-11 17:31N 29°34' W 090°44'0 0.0
2017-Dec-11 17:01N 29°34' W 090°44'1 1.0
2017-Dec-11 16:31N 29°34' W 090°43'3 1.9
2017-Dec-11 14:45N 29°36' W 090°40'0 0.0
2017-Dec-11 14:30N 29°36' W 090°40'0 0.0
2017-Dec-11 14:00N 29°36' W 090°40'0 0.0
2017-Dec-11 13:30N 29°36' W 090°40'0 0.0
2017-Dec-11 13:01N 29°36' W 090°40'0 0.0
2017-Dec-11 12:30N 29°36' W 090°40'0 0.0
2017-Dec-11 12:00N 29°36' W 090°40'0 0.0
2017-Dec-11 11:31N 29°36' W 090°40'0 0.0
2017-Dec-11 11:00N 29°36' W 090°40'0 0.0
2017-Dec-11 10:30N 29°36' W 090°40'0 0.0
2017-Dec-11 10:00N 29°36' W 090°40'0 0.0
2017-Dec-11 09:30N 29°36' W 090°40'0 0.0
2017-Dec-11 09:00N 29°36' W 090°40'0 0.0
2017-Dec-11 08:31N 29°36' W 090°40'0 0.0
2017-Dec-11 08:00N 29°36' W 090°40'0 0.0
2017-Dec-11 07:30N 29°36' W 090°40'0 0.0
2017-Dec-11 07:00N 29°36' W 090°40'0 0.0
2017-Dec-11 06:31N 29°36' W 090°40'0 0.0
2017-Dec-11 06:00N 29°36' W 090°40'0 0.0
2017-Dec-11 05:30N 29°36' W 090°40'0 0.0
2017-Dec-11 05:00N 29°36' W 090°40'0 0.0
2017-Dec-11 04:30N 29°36' W 090°40'0 0.0
2017-Dec-11 04:00N 29°36' W 090°40'0 0.0
2017-Dec-11 03:30N 29°36' W 090°40'0 0.0
2017-Dec-11 03:00N 29°36' W 090°40'0 0.0
2017-Dec-11 02:31N 29°36' W 090°40'0 0.0
2017-Dec-11 02:00N 29°36' W 090°40'0 0.0
2017-Dec-11 01:30N 29°36' W 090°40'2 0.3
2017-Dec-10 17:56N 29°37' W 090°42'3 6.7
2017-Dec-10 17:31N 29°34' W 090°43'6 0.3
2017-Dec-09 18:33N 29°28' W 090°43'0 5.1
2017-Dec-09 18:30N 29°28' W 090°43'4 8.4
2017-Dec-09 18:00N 29°32' W 090°42'3 6.5
2017-Dec-09 17:31N 29°35' W 090°43'3 1.2
2017-Dec-09 15:16N 29°36' W 090°40'0 0.0
2017-Dec-09 14:51N 29°36' W 090°40'0 0.0
2017-Dec-09 14:29N 29°36' W 090°40'0 0.0
2017-Dec-09 14:01N 29°36' W 090°40'0 0.0
2017-Dec-09 13:30N 29°36' W 090°40'0 0.0
2017-Dec-09 13:00N 29°36' W 090°40'0 0.0
2017-Dec-09 12:31N 29°36' W 090°40'0 0.0
2017-Dec-09 12:00N 29°36' W 090°40'0 0.0
2017-Dec-09 11:31N 29°36' W 090°40'0 0.0
2017-Dec-09 11:00N 29°36' W 090°40'0 0.0
2017-Dec-09 10:30N 29°36' W 090°40'0 0.0
2017-Dec-09 10:00N 29°36' W 090°40'0 0.0
2017-Dec-09 09:31N 29°36' W 090°40'0 0.0
2017-Dec-09 09:00N 29°36' W 090°40'0 0.0
2017-Dec-09 08:31N 29°36' W 090°40'0 0.0
2017-Dec-09 08:01N 29°36' W 090°40'0 0.0
2017-Dec-09 07:29N 29°36' W 090°40'0 0.0
2017-Dec-09 07:00N 29°36' W 090°40'0 0.0
2017-Dec-09 06:31N 29°36' W 090°40'0 0.0
2017-Dec-09 05:59N 29°36' W 090°40'0 0.0
2017-Dec-09 05:31N 29°36' W 090°40'0 0.0
2017-Dec-09 05:00N 29°36' W 090°40'0 0.0
2017-Dec-09 04:30N 29°36' W 090°40'0 0.0
2017-Dec-09 03:59N 29°36' W 090°40'0 0.0
2017-Dec-09 03:30N 29°36' W 090°40'0 0.0
2017-Dec-09 03:01N 29°36' W 090°40'0 0.0
2017-Dec-09 02:30N 29°36' W 090°40'0 0.0
2017-Dec-09 02:00N 29°36' W 090°40'0 0.0
2017-Dec-09 01:30N 29°36' W 090°40'0 0.0
2017-Dec-09 01:01N 29°36' W 090°40'0 0.0
2017-Dec-09 00:30N 29°36' W 090°40'0 0.0
2017-Dec-09 00:01N 29°36' W 090°40'0 0.0
2017-Dec-08 23:31N 29°36' W 090°40'0 0.0
2017-Dec-08 23:01N 29°36' W 090°40'0 0.0
2017-Dec-08 22:30N 29°36' W 090°40'0 0.0
2017-Dec-08 22:00N 29°36' W 090°40'0 0.0
2017-Dec-08 21:30N 29°36' W 090°40'0 0.0
2017-Dec-08 21:00N 29°36' W 090°40'0 0.0
2017-Dec-08 20:30N 29°36' W 090°40'0 0.0
2017-Dec-08 20:01N 29°36' W 090°40'0 0.0
2017-Dec-08 19:30N 29°36' W 090°40'0 0.0
2017-Dec-08 19:01N 29°36' W 090°40'0 0.0
2017-Dec-08 18:30N 29°36' W 090°40'0 0.0
2017-Dec-08 18:01N 29°36' W 090°40'0 0.0
2017-Dec-08 17:30N 29°36' W 090°40'0 0.0
2017-Dec-08 17:01N 29°36' W 090°40'0 0.0
2017-Dec-08 16:30N 29°36' W 090°40'0 0.0
2017-Dec-08 16:00N 29°36' W 090°40'0 0.0
2017-Dec-08 15:31N 29°36' W 090°40'0 0.0
2017-Dec-08 15:00N 29°36' W 090°40'  

Dump ship's entire track history